KR-0454 weather

Public forecast

Using degrees Celsius for public forecast. Weather courtesy of forecast.io.

Closest aviation weather report (METAR) to Mol-Udae Heliport

Closest report is Gimhae International Airport, 8.5 nm (15.8 km) N. Retrieved 2020/08/14 13:00 UTC (57 minutes ago):

RKPK 141300Z 17005KT 9999 FEW015 SCT020 BKN200 28/25 Q1008

Closest aviation forecast (TAF) to Mol-Udae Heliport

Closest forecast is Gimhae International Airport, 8.5 nm (15.8 km) N. Retrieved 2020/08/14 12:00 UTC (2 hours ago):

TAF RKPK 141100Z 1412/1518 21010KT 9999 SCT030 BKN200 TN25/1421Z TX33/1506Z TEMPO 1412/1415 BKN020 BECMG 1416/1417 SCT030